タリン の空港の天気 - METARとTAF

タリン空港 ( EETN / TLL ) - エストニア タリン
飛行場実況気象(Metar)
観測時間11/13 09:50 EET (11/13 07:50 UTC)
風向・風速南東 5m/s
視程9000m
天気現象弱い雨
全天を覆う雲 雲底高度 180m
気温6℃
湿度93%
気圧1008hPa
METAREETN 130750Z 14010KT 110V180 9000 -RA OVC006 06/05 Q1008 R08/290195 TEMPO 4000 RA OVC005
過去の天気等 Google飛行場航空写真 Wunderground天気予報

過去48時間のMETAR

飛行場予報(TAF)
発表時間: 11/13 07:30 EET (11/13 05:30 UTC)
予報対象時間: 13日8時 EET ~ 14日8時 EET
風向・風速南南東 5m/s
視程8000m
天気現象
全天を覆う雲 雲底高度 180m
13日8時 EET ~ 13日14時 EET に一時的に
視程4000m
天気現象雨霧雨
13日14時 EET ~ 14日2時 EET に一時的に
視程2000m
天気現象しゅう雨 もや
全天の8割程度の雲 雲底高度 120m
全天の4割程度の積乱雲 雲底高度 460m
14日2時 EET ~ 14日8時 EET に 確率 40% で一時的に
視程3000m
天気現象もや
全天の8割程度の雲 雲底高度 210m
TAF EETN 130530Z 1306/1406 16010KT 8000 RA OVC006
TEMPO 1306/1312 4000 RADZ
TEMPO 1312/1324 2000 SHRA BR BKN004 SCT015CB
PROB40 TEMPO 1400/1406 3000 BR BKN007